Roger Revelle — KAOU — position and weather

sailwx.info

Track history (hours):
 
Tides and Currents Weather Stations Pressure Air Temp Water Temp Dewpoint Dewpoint Depression Visibility Wind Speed Wind Dir Waves Ship Positions

Oceanographic research ship Roger Revelle (USA)

Detailed information on ship capabilities available from University of Delaware's Ocean Information Center.

Owner: REGENTS OF THE UNIVERSITY OF CALIFORNIA, OAKLAND, CA. More information available from US FCC via Universal Licensing System.

Last reported at 2019-Apr-15 21:43 UTC. Time now 2019-Apr-25 10:45 UTC.
Position N 45°34' W 122°43'.
Warning: this ship's position is 9 days out of date.

Type: Ship. MMSI: 367800100.

Date/timePositionNaut miles runAvg speedWind from/ knotsBaromVisibWave heightAir tempDewpointWater temp
2019-Apr-15 21:43N 45°34' W 122°43'0 0.0
2019-Apr-15 21:28N 45°34' W 122°43'0 0.0
2019-Apr-15 20:52N 45°34' W 122°43'0 0.0
2019-Apr-15 20:28N 45°34' W 122°43'0 0.0
2019-Apr-15 19:58N 45°34' W 122°43'0 0.0
2019-Apr-15 19:30N 45°34' W 122°43'1 2.5
2019-Apr-15 19:00N 45°35' W 122°45'4 7.6
2019-Apr-15 18:31N 45°38' W 122°47'5 9.4
2019-Apr-15 18:00N 45°42' W 122°46'611.8
2019-Apr-15 17:30N 45°48' W 122°47'510.7
2019-Apr-15 17:00N 45°54' W 122°48'811.2
2019-Apr-15 16:16N 46°01' W 122°52'311.4
2019-Apr-15 16:01N 46°04' W 122°53'5 9.2
2019-Apr-15 15:30N 46°07' W 122°59'611.3
2019-Apr-15 15:00N 46°10' W 123°05'510.6
2019-Apr-15 14:30N 46°10' W 123°13'611.1
2019-Apr-15 13:58N 46°09' W 123°21'4 9.3
2019-Apr-15 13:30N 46°12' W 123°26'510.5
2019-Apr-15 13:00N 46°16' W 123°30'611.7
2019-Apr-15 12:30N 46°15' W 123°38'611.9
2019-Apr-15 12:00N 46°13' W 123°46'510.1
2019-Apr-15 11:30N 46°12' W 123°53'510.7
2019-Apr-15 11:00N 46°14' W 123°59'5 9.5
2019-Apr-15 10:31N 46°14' W 124°06'713.1
2019-Apr-15 10:00N 46°10' W 124°13'611.4
2019-Apr-15 09:31N 46°05' W 124°16'611.3
2019-Apr-15 09:01N 45°59' W 124°18'811.4
2019-Apr-15 08:21N 45°52' W 124°19'411.2
2019-Apr-15 08:01N 45°48' W 124°19'611.4
2019-Apr-15 07:30N 45°42' W 124°20'611.8
2019-Apr-15 07:00N 45°36' W 124°21'611.6
2019-Apr-15 06:27N 45°30' W 124°21'511.3
2019-Apr-15 06:00N 45°25' W 124°22'611.5
2019-Apr-15 05:30N 45°19' W 124°23'611.5
2019-Apr-15 05:00N 45°13' W 124°23'611.4
2019-Apr-15 04:28N 45°07' W 124°24'611.4
2019-Apr-15 03:57N 45°02' W 124°25'377 9.2
2019-Apr-13 10:55N 38°46' W 123°42'410.5
2019-Apr-13 10:31N 38°42' W 123°40'510.2
2019-Apr-13 09:59N 38°38' W 123°36'5 9.7
2019-Apr-13 09:30N 38°34' W 123°33'5 9.1
2019-Apr-13 09:00N 38°30' W 123°31'5 9.3
2019-Apr-13 08:30N 38°26' W 123°28'5 9.1
2019-Apr-13 08:01N 38°22' W 123°25'5 9.4
2019-Apr-13 07:30N 38°18' W 123°22'5 9.4
2019-Apr-13 07:00N 38°14' W 123°19'5 9.1
2019-Apr-13 06:30N 38°10' W 123°16'5 9.0
2019-Apr-13 06:00N 38°06' W 123°12'5 9.1
2019-Apr-13 05:30N 38°03' W 123°08'5 9.3
2019-Apr-13 05:00N 37°60' W 123°04'5 9.8
2019-Apr-13 04:30N 37°57' W 122°59'510.8
2019-Apr-13 04:00N 37°54' W 122°54'510.8
2019-Apr-13 03:31N 37°51' W 122°48'611.8
2019-Apr-13 03:00N 37°47' W 122°42'611.6
2019-Apr-13 02:31N 37°42' W 122°40'612.4
2019-Apr-13 02:01N 37°35' W 122°40'612.5
2019-Apr-13 01:30N 37°29' W 122°40'612.3
2019-Apr-13 01:00N 37°23' W 122°40'611.8
2019-Apr-13 00:30N 37°17' W 122°39'611.6
2019-Apr-13 00:00N 37°12' W 122°36'611.7
2019-Apr-12 23:30N 37°07' W 122°32'611.8
2019-Apr-12 23:00N 37°02' W 122°29'711.9
2019-Apr-12 22:27N 36°56' W 122°25'25811.2
2019-Apr-11 23:27N 33°43' W 118°55'613.1
2019-Apr-11 23:01N 33°40' W 118°49'713.3
2019-Apr-11 22:31N 33°37' W 118°42'713.2
2019-Apr-11 22:00N 33°33' W 118°35'713.4
2019-Apr-11 21:30N 33°30' W 118°28'713.4
2019-Apr-11 21:00N 33°26' W 118°22'713.1
2019-Apr-11 20:30N 33°22' W 118°16'713.4
2019-Apr-11 20:00N 33°17' W 118°10'714.0
2019-Apr-11 19:31N 33°12' W 118°04'713.7
2019-Apr-11 19:01N 33°08' W 117°58'713.7
2019-Apr-11 18:31N 33°03' W 117°51'714.0
2019-Apr-11 18:00N 32°59' W 117°45'713.8
2019-Apr-11 17:30N 32°54' W 117°39'713.9
2019-Apr-11 17:01N 32°49' W 117°33'713.4
2019-Apr-11 16:30N 32°44' W 117°27'713.6
2019-Apr-11 16:00N 32°40' W 117°21'612.7
2019-Apr-11 15:31N 32°38' W 117°14'4 8.3
2019-Apr-11 15:00N 32°42' W 117°14'0 0.0
2019-Apr-11 14:30N 32°42' W 117°14'0 0.0
2019-Apr-11 13:57N 32°42' W 117°14'0 0.0
2019-Apr-11 13:30N 32°42' W 117°14'0 0.0
2019-Apr-11 12:57N 32°42' W 117°14'0 0.0
2019-Apr-11 12:30N 32°42' W 117°14'0 0.0
2019-Apr-11 12:00N 32°42' W 117°14'0 0.0
2019-Apr-11 11:27N 32°42' W 117°14'0 0.0
2019-Apr-11 11:00N 32°42' W 117°14'0 0.0
2019-Apr-11 10:30N 32°42' W 117°14'0 0.0
2019-Apr-11 10:00N 32°42' W 117°14'0 0.0
2019-Apr-11 09:30N 32°42' W 117°14'0 0.0
2019-Apr-11 08:57N 32°42' W 117°14'0 0.0
2019-Apr-11 08:30N 32°42' W 117°14'0 0.0
2019-Apr-11 08:00N 32°42' W 117°14'0 0.0
2019-Apr-11 07:30N 32°42' W 117°14'0 0.0
2019-Apr-11 07:00N 32°42' W 117°14'0 0.0
2019-Apr-11 06:30N 32°42' W 117°14'0 0.0
2019-Apr-11 06:00N 32°42' W 117°14'0 0.0
2019-Apr-11 05:30N 32°42' W 117°14'0 0.0
2019-Apr-11 05:00N 32°42' W 117°14'0 0.0
2019-Apr-11 04:30N 32°42' W 117°14'0 0.0
2019-Apr-11 04:00N 32°42' W 117°14'0 0.0
2019-Apr-11 03:30N 32°42' W 117°14'0 0.0
2019-Apr-11 02:57N 32°42' W 117°14'  
Track history (hours):
 
Tides and Currents Weather Stations Pressure Air Temp Water Temp Dewpoint Dewpoint Depression Visibility Wind Speed Wind Dir Waves Ship Positions

Oceanographic research ship Roger Revelle (USA)

Detailed information on ship capabilities available from University of Delaware's Ocean Information Center.

Owner: REGENTS OF THE UNIVERSITY OF CALIFORNIA, OAKLAND, CA. More information available from US FCC via Universal Licensing System.

Last reported at 2019-Apr-15 21:43 UTC. Time now 2019-Apr-25 10:45 UTC.
Position N 45°34' W 122°43'.
Warning: this ship's position is 9 days out of date.

Type: Ship. MMSI: 367800100.

Date/timePositionNaut miles runAvg speedWind from/ knotsBaromVisibWave heightAir tempDewpointWater temp
2019-Apr-15 21:43N 45°34' W 122°43'0 0.0
2019-Apr-15 21:28N 45°34' W 122°43'0 0.0
2019-Apr-15 20:52N 45°34' W 122°43'0 0.0
2019-Apr-15 20:28N 45°34' W 122°43'0 0.0
2019-Apr-15 19:58N 45°34' W 122°43'0 0.0
2019-Apr-15 19:30N 45°34' W 122°43'1 2.5
2019-Apr-15 19:00N 45°35' W 122°45'4 7.6
2019-Apr-15 18:31N 45°38' W 122°47'5 9.4
2019-Apr-15 18:00N 45°42' W 122°46'611.8
2019-Apr-15 17:30N 45°48' W 122°47'510.7
2019-Apr-15 17:00N 45°54' W 122°48'811.2
2019-Apr-15 16:16N 46°01' W 122°52'311.4
2019-Apr-15 16:01N 46°04' W 122°53'5 9.2
2019-Apr-15 15:30N 46°07' W 122°59'611.3
2019-Apr-15 15:00N 46°10' W 123°05'510.6
2019-Apr-15 14:30N 46°10' W 123°13'611.1
2019-Apr-15 13:58N 46°09' W 123°21'4 9.3
2019-Apr-15 13:30N 46°12' W 123°26'510.5
2019-Apr-15 13:00N 46°16' W 123°30'611.7
2019-Apr-15 12:30N 46°15' W 123°38'611.9
2019-Apr-15 12:00N 46°13' W 123°46'510.1
2019-Apr-15 11:30N 46°12' W 123°53'510.7
2019-Apr-15 11:00N 46°14' W 123°59'5 9.5
2019-Apr-15 10:31N 46°14' W 124°06'713.1
2019-Apr-15 10:00N 46°10' W 124°13'611.4
2019-Apr-15 09:31N 46°05' W 124°16'611.3
2019-Apr-15 09:01N 45°59' W 124°18'811.4
2019-Apr-15 08:21N 45°52' W 124°19'411.2
2019-Apr-15 08:01N 45°48' W 124°19'611.4
2019-Apr-15 07:30N 45°42' W 124°20'611.8
2019-Apr-15 07:00N 45°36' W 124°21'611.6
2019-Apr-15 06:27N 45°30' W 124°21'511.3
2019-Apr-15 06:00N 45°25' W 124°22'611.5
2019-Apr-15 05:30N 45°19' W 124°23'611.5
2019-Apr-15 05:00N 45°13' W 124°23'611.4
2019-Apr-15 04:28N 45°07' W 124°24'611.4
2019-Apr-15 03:57N 45°02' W 124°25'377 9.2
2019-Apr-13 10:55N 38°46' W 123°42'410.5
2019-Apr-13 10:31N 38°42' W 123°40'510.2
2019-Apr-13 09:59N 38°38' W 123°36'5 9.7
2019-Apr-13 09:30N 38°34' W 123°33'5 9.1
2019-Apr-13 09:00N 38°30' W 123°31'5 9.3
2019-Apr-13 08:30N 38°26' W 123°28'5 9.1
2019-Apr-13 08:01N 38°22' W 123°25'5 9.4
2019-Apr-13 07:30N 38°18' W 123°22'5 9.4
2019-Apr-13 07:00N 38°14' W 123°19'5 9.1
2019-Apr-13 06:30N 38°10' W 123°16'5 9.0
2019-Apr-13 06:00N 38°06' W 123°12'5 9.1
2019-Apr-13 05:30N 38°03' W 123°08'5 9.3
2019-Apr-13 05:00N 37°60' W 123°04'5 9.8
2019-Apr-13 04:30N 37°57' W 122°59'510.8
2019-Apr-13 04:00N 37°54' W 122°54'510.8
2019-Apr-13 03:31N 37°51' W 122°48'611.8
2019-Apr-13 03:00N 37°47' W 122°42'611.6
2019-Apr-13 02:31N 37°42' W 122°40'612.4
2019-Apr-13 02:01N 37°35' W 122°40'612.5
2019-Apr-13 01:30N 37°29' W 122°40'612.3
2019-Apr-13 01:00N 37°23' W 122°40'611.8
2019-Apr-13 00:30N 37°17' W 122°39'611.6
2019-Apr-13 00:00N 37°12' W 122°36'611.7
2019-Apr-12 23:30N 37°07' W 122°32'611.8
2019-Apr-12 23:00N 37°02' W 122°29'711.9
2019-Apr-12 22:27N 36°56' W 122°25'25811.2
2019-Apr-11 23:27N 33°43' W 118°55'613.1
2019-Apr-11 23:01N 33°40' W 118°49'713.3
2019-Apr-11 22:31N 33°37' W 118°42'713.2
2019-Apr-11 22:00N 33°33' W 118°35'713.4
2019-Apr-11 21:30N 33°30' W 118°28'713.4
2019-Apr-11 21:00N 33°26' W 118°22'713.1
2019-Apr-11 20:30N 33°22' W 118°16'713.4
2019-Apr-11 20:00N 33°17' W 118°10'714.0
2019-Apr-11 19:31N 33°12' W 118°04'713.7
2019-Apr-11 19:01N 33°08' W 117°58'713.7
2019-Apr-11 18:31N 33°03' W 117°51'714.0
2019-Apr-11 18:00N 32°59' W 117°45'713.8
2019-Apr-11 17:30N 32°54' W 117°39'713.9
2019-Apr-11 17:01N 32°49' W 117°33'713.4
2019-Apr-11 16:30N 32°44' W 117°27'713.6
2019-Apr-11 16:00N 32°40' W 117°21'612.7
2019-Apr-11 15:31N 32°38' W 117°14'4 8.3
2019-Apr-11 15:00N 32°42' W 117°14'0 0.0
2019-Apr-11 14:30N 32°42' W 117°14'0 0.0
2019-Apr-11 13:57N 32°42' W 117°14'0 0.0
2019-Apr-11 13:30N 32°42' W 117°14'0 0.0
2019-Apr-11 12:57N 32°42' W 117°14'0 0.0
2019-Apr-11 12:30N 32°42' W 117°14'0 0.0
2019-Apr-11 12:00N 32°42' W 117°14'0 0.0
2019-Apr-11 11:27N 32°42' W 117°14'0 0.0
2019-Apr-11 11:00N 32°42' W 117°14'0 0.0
2019-Apr-11 10:30N 32°42' W 117°14'0 0.0
2019-Apr-11 10:00N 32°42' W 117°14'0 0.0
2019-Apr-11 09:30N 32°42' W 117°14'0 0.0
2019-Apr-11 08:57N 32°42' W 117°14'0 0.0
2019-Apr-11 08:30N 32°42' W 117°14'0 0.0
2019-Apr-11 08:00N 32°42' W 117°14'0 0.0
2019-Apr-11 07:30N 32°42' W 117°14'0 0.0
2019-Apr-11 07:00N 32°42' W 117°14'0 0.0
2019-Apr-11 06:30N 32°42' W 117°14'0 0.0
2019-Apr-11 06:00N 32°42' W 117°14'0 0.0
2019-Apr-11 05:30N 32°42' W 117°14'0 0.0
2019-Apr-11 05:00N 32°42' W 117°14'0 0.0
2019-Apr-11 04:30N 32°42' W 117°14'0 0.0
2019-Apr-11 04:00N 32°42' W 117°14'0 0.0
2019-Apr-11 03:30N 32°42' W 117°14'0 0.0
2019-Apr-11 02:57N 32°42' W 117°14'  

Dump ship's entire track history